createdAt,value
2018-06-13T00:02:11.485Z,99672.34
2018-06-13T00:04:40.019Z,99677.45
2018-06-13T00:07:08.624Z,99676.42
2018-06-13T00:09:37.165Z,99677.96
2018-06-13T00:12:05.884Z,99674.16
2018-06-13T00:14:34.538Z,99680.50
2018-06-13T00:17:03.225Z,99682.44
2018-06-13T00:19:31.841Z,99678.20
2018-06-13T00:22:00.439Z,99677.12
2018-06-13T00:24:28.990Z,99673.77
2018-06-13T00:26:57.512Z,99629.16
2018-06-13T00:29:26.511Z,99675.89
2018-06-13T00:31:55.052Z,99684.70
2018-06-13T00:34:23.611Z,99684.42
2018-06-13T00:36:52.311Z,99682.34
2018-06-13T00:39:20.880Z,99689.07
2018-06-13T00:41:49.476Z,99692.55
2018-06-13T00:44:18.034Z,99694.39
2018-06-13T00:46:46.576Z,99695.72
2018-06-13T00:49:15.175Z,99699.68
2018-06-13T00:51:43.704Z,99697.40
2018-06-13T00:54:12.232Z,99692.47
2018-06-13T00:56:40.810Z,99691.95
2018-06-13T00:59:09.341Z,99701.09
2018-06-13T01:01:37.765Z,99699.97
2018-06-13T01:04:06.242Z,99701.57
2018-06-13T01:06:34.723Z,99702.69
2018-06-13T01:09:03.300Z,99707.37
2018-06-13T01:11:31.892Z,99706.23
2018-06-13T01:14:00.415Z,99704.70
2018-06-13T01:16:28.964Z,99702.73
2018-06-13T01:18:57.520Z,99705.17
2018-06-13T01:21:26.136Z,99709.84
2018-06-13T01:23:54.719Z,99707.53
2018-06-13T01:26:23.328Z,99713.17
2018-06-13T01:28:51.979Z,99707.83
2018-06-13T01:31:20.454Z,99708.11
2018-06-13T01:33:48.947Z,99711.98
2018-06-13T01:36:17.473Z,99710.14
2018-06-13T01:38:45.997Z,99707.41
2018-06-13T01:41:14.544Z,99704.67
2018-06-13T01:43:43.174Z,99703.75
2018-06-13T01:46:11.747Z,99705.82
2018-06-13T01:48:40.376Z,99707.49
2018-06-13T01:51:08.972Z,99706.62
2018-06-13T01:53:37.646Z,99708.73
2018-06-13T01:56:06.247Z,99707.49
2018-06-13T01:58:34.840Z,99705.25
2018-06-13T02:01:03.432Z,99706.57
2018-06-13T02:03:32.100Z,99703.00
2018-06-13T02:06:00.658Z,99709.14
2018-06-13T02:08:29.182Z,99707.49
2018-06-13T02:10:57.831Z,99713.23
2018-06-13T02:13:26.428Z,99708.06
2018-06-13T02:15:54.972Z,99704.55
2018-06-13T02:18:23.542Z,99701.50
2018-06-13T02:20:52.131Z,99705.02
2018-06-13T02:23:20.818Z,99700.70
2018-06-13T02:25:49.442Z,99702.02
2018-06-13T02:28:17.961Z,99703.75
2018-06-13T02:30:46.596Z,99705.02
2018-06-13T02:33:15.217Z,99702.30
2018-06-13T02:35:43.967Z,99701.05
2018-06-13T02:38:12.548Z,99702.38
2018-06-13T02:40:41.239Z,99704.14
2018-06-13T02:43:09.949Z,99712.96
2018-06-13T02:45:38.613Z,99711.20
2018-06-13T02:48:07.217Z,99713.36
2018-06-13T02:50:35.875Z,99711.95
2018-06-13T02:53:04.523Z,99707.55
2018-06-13T02:55:33.230Z,99715.44
2018-06-13T02:58:01.941Z,99714.95
2018-06-13T03:00:30.640Z,99710.14
2018-06-13T03:02:59.335Z,99710.55
2018-06-13T03:05:28.025Z,99709.61
2018-06-13T03:07:56.693Z,99710.94
2018-06-13T03:10:25.507Z,99715.31
2018-06-13T03:12:54.210Z,99712.19
2018-06-13T03:15:22.949Z,99706.48
2018-06-13T03:17:51.576Z,99707.37
2018-06-13T03:20:20.223Z,99714.38
2018-06-13T03:22:48.966Z,99722.73
2018-06-13T03:25:17.682Z,99721.00
2018-06-13T03:27:47.101Z,99723.52
2018-06-13T03:30:15.749Z,99727.97
2018-06-13T03:32:45.074Z,99720.42
2018-06-13T03:35:14.230Z,99726.17
2018-06-13T03:37:42.950Z,99721.00
2018-06-13T03:40:11.722Z,99727.22
2018-06-13T03:42:40.509Z,99730.31
2018-06-13T03:45:09.519Z,99726.73
2018-06-13T03:47:38.386Z,99724.92
2018-06-13T03:50:07.102Z,99729.69
2018-06-13T03:52:35.775Z,99725.67
2018-06-13T03:55:04.630Z,99728.32
2018-06-13T03:57:33.355Z,99723.42
2018-06-13T04:00:02.022Z,99730.48
2018-06-13T04:02:30.697Z,99736.31
2018-06-13T04:04:59.480Z,99737.23
2018-06-13T04:07:28.176Z,99742.53
2018-06-13T04:09:56.916Z,99734.98
2018-06-13T04:12:25.737Z,99739.71
2018-06-13T04:14:54.477Z,99736.98
2018-06-13T04:17:23.110Z,99735.21
2018-06-13T04:19:51.897Z,99728.99
2018-06-13T04:22:20.616Z,99732.61
2018-06-13T04:24:49.457Z,99727.80
2018-06-13T04:27:18.039Z,99730.89
2018-06-13T04:29:46.616Z,99727.45
2018-06-13T04:32:15.315Z,99729.56
2018-06-13T04:34:44.079Z,99726.56
2018-06-13T04:37:12.901Z,99726.56
2018-06-13T04:39:41.520Z,99729.65
2018-06-13T04:42:10.063Z,99730.84
2018-06-13T04:44:38.708Z,99734.23
2018-06-13T04:47:07.349Z,99737.20
2018-06-13T04:49:36.043Z,99732.39
2018-06-13T04:52:04.697Z,99735.44
2018-06-13T04:54:33.428Z,99739.28
2018-06-13T04:57:02.318Z,99733.41
2018-06-13T04:59:31.320Z,99735.83
2018-06-13T05:02:00.390Z,99735.59
2018-06-13T05:04:29.117Z,99739.88
2018-06-13T05:06:57.702Z,99732.72
2018-06-13T05:09:26.403Z,99732.01
2018-06-13T05:11:55.195Z,99734.21
2018-06-13T05:14:23.984Z,99742.77
2018-06-13T05:16:52.797Z,99738.75
2018-06-13T05:19:21.627Z,99735.56
2018-06-13T05:21:50.303Z,99736.84
2018-06-13T05:24:18.994Z,99739.36
2018-06-13T05:26:47.877Z,99740.23
2018-06-13T05:29:16.432Z,99737.84
2018-06-13T05:31:45.102Z,99738.05
2018-06-13T05:34:13.808Z,99736.59
2018-06-13T05:36:42.619Z,99740.07
2018-06-13T05:39:11.442Z,99739.05
2018-06-13T05:41:40.347Z,99737.44
2018-06-13T05:44:09.055Z,99736.17
2018-06-13T05:46:37.728Z,99740.70
2018-06-13T05:49:06.401Z,99736.47
2018-06-13T05:51:35.011Z,99748.91
2018-06-13T05:54:03.780Z,99750.30
2018-06-13T05:56:32.316Z,99762.69
2018-06-13T05:59:00.892Z,99758.45
2018-06-13T06:01:29.577Z,99767.66
2018-06-13T06:03:58.172Z,99764.36
2018-06-13T06:06:26.901Z,99766.28
2018-06-13T06:08:55.508Z,99766.62
2018-06-13T06:11:24.135Z,99770.20
2018-06-13T06:13:52.918Z,99770.45
2018-06-13T06:16:21.584Z,99774.23
2018-06-13T06:18:54.120Z,99768.39
2018-06-13T06:21:22.935Z,99770.32
2018-06-13T06:23:51.475Z,99778.66
2018-06-13T06:26:20.411Z,99773.33
2018-06-13T06:28:49.185Z,99771.28
2018-06-13T06:31:18.283Z,99777.34
2018-06-13T06:33:47.876Z,99779.46
2018-06-13T06:36:16.591Z,99774.08
2018-06-13T06:38:46.252Z,99779.02
2018-06-13T06:41:15.205Z,99780.96
2018-06-13T06:43:44.229Z,99780.34
2018-06-13T06:46:13.394Z,99780.34
2018-06-13T06:48:42.349Z,99783.06
2018-06-13T06:51:11.304Z,99786.60
2018-06-13T06:53:40.031Z,99783.68
2018-06-13T06:56:08.685Z,99780.08
2018-06-13T06:58:37.352Z,99785.16
2018-06-13T07:01:06.168Z,99786.33
2018-06-13T07:03:35.032Z,99791.97
2018-06-13T07:06:03.809Z,99795.02
2018-06-13T07:08:32.835Z,99794.58
2018-06-13T07:11:02.132Z,99794.19
2018-06-13T07:13:33.769Z,99792.51
2018-06-13T07:16:10.152Z,99790.59
2018-06-13T07:18:39.603Z,99778.64
2018-06-13T07:21:09.677Z,99785.20
2018-06-13T07:23:38.704Z,99791.26
2018-06-13T07:26:08.216Z,99794.63
2018-06-13T07:28:37.607Z,99794.90
2018-06-13T07:31:06.712Z,99803.62
2018-06-13T07:33:35.435Z,99793.91
2018-06-13T07:36:04.264Z,99799.48
2018-06-13T07:38:33.126Z,99801.14
2018-06-13T07:41:01.986Z,99811.47
2018-06-13T07:43:31.420Z,99808.53
2018-06-13T07:46:00.279Z,99814.64
2018-06-13T07:48:29.108Z,99815.03
2018-06-13T07:50:57.974Z,99813.94
2018-06-13T07:53:26.734Z,99800.48
2018-06-13T07:55:55.347Z,99821.20
2018-06-13T07:58:24.240Z,99808.78
2018-06-13T08:00:53.226Z,99812.05
2018-06-13T08:03:22.069Z,99807.18
2018-06-13T08:05:50.875Z,99818.62
2018-06-13T08:08:19.752Z,99818.04
2018-06-13T08:10:48.642Z,99815.02
2018-06-13T08:13:17.743Z,99821.84
2018-06-13T08:15:46.674Z,99824.00
2018-06-13T08:18:15.616Z,99830.08
2018-06-13T08:20:44.242Z,99842.65
2018-06-13T08:23:12.954Z,99846.20
2018-06-13T08:25:41.522Z,99842.72
2018-06-13T08:28:10.180Z,99848.14
2018-06-13T08:30:39.011Z,99842.00
2018-06-13T08:33:07.872Z,99838.11
2018-06-13T08:35:36.610Z,99837.59
2018-06-13T08:38:05.346Z,99846.52
2018-06-13T08:40:34.162Z,99840.77
2018-06-13T08:43:02.876Z,99847.55
2018-06-13T08:45:31.583Z,99841.73
2018-06-13T08:48:00.422Z,99843.38
2018-06-13T08:50:29.220Z,99847.80
2018-06-13T08:52:57.953Z,99849.56
2018-06-13T08:55:26.637Z,99850.05
2018-06-13T08:57:55.636Z,99844.49
2018-06-13T09:00:24.413Z,99843.38
2018-06-13T09:02:53.194Z,99843.65
2018-06-13T09:05:21.816Z,99849.11
2018-06-13T09:07:50.574Z,99845.73
2018-06-13T09:10:19.243Z,99844.07
2018-06-13T09:12:47.912Z,99840.63
2018-06-13T09:15:16.621Z,99845.06
2018-06-13T09:17:45.215Z,99851.44
2018-06-13T09:20:13.861Z,99858.08
2018-06-13T09:22:42.447Z,99852.50
2018-06-13T09:25:11.120Z,99855.64
2018-06-13T09:27:39.770Z,99857.09
2018-06-13T09:30:08.435Z,99856.98
2018-06-13T09:32:37.054Z,99859.67
2018-06-13T09:35:05.729Z,99861.50
2018-06-13T09:37:34.387Z,99861.16
2018-06-13T09:40:03.088Z,99870.20
2018-06-13T09:42:31.815Z,99872.23
2018-06-13T09:45:00.400Z,99859.83
2018-06-13T09:47:29.087Z,99861.13
2018-06-13T09:49:57.765Z,99858.59
2018-06-13T09:52:26.373Z,99865.91
2018-06-13T09:54:55.025Z,99854.05
2018-06-13T09:57:23.668Z,99855.95
2018-06-13T09:59:57.412Z,99854.29
2018-06-13T10:02:31.218Z,99858.28
2018-06-13T10:04:59.787Z,99862.81
2018-06-13T10:07:28.590Z,99860.70
2018-06-13T10:09:57.275Z,99861.27
2018-06-13T10:12:26.204Z,99852.63
2018-06-13T10:14:55.319Z,99852.23
2018-06-13T10:17:23.965Z,99855.31
2018-06-13T10:19:52.705Z,99859.03
2018-06-13T10:22:21.296Z,99853.56
2018-06-13T10:24:50.086Z,99862.28
2018-06-13T10:27:23.884Z,99863.82
2018-06-13T10:29:52.540Z,99864.75
2018-06-13T10:32:21.160Z,99867.20
2018-06-13T10:34:49.819Z,99857.25
2018-06-13T10:37:18.493Z,99860.79
2018-06-13T10:39:47.180Z,99865.35
2018-06-13T10:42:15.851Z,99868.31
2018-06-13T10:44:44.841Z,99869.08
2018-06-13T10:47:13.692Z,99864.53
2018-06-13T10:49:42.608Z,99863.30
2018-06-13T10:52:11.463Z,99869.73
2018-06-13T10:54:40.144Z,99869.70
2018-06-13T10:57:09.082Z,99866.71
2018-06-13T10:59:37.944Z,99874.42
2018-06-13T11:02:07.228Z,99872.20
2018-06-13T11:04:36.062Z,99873.55
2018-06-13T11:07:04.817Z,99873.95
2018-06-13T11:09:33.569Z,99875.64
2018-06-13T11:12:02.336Z,99875.19
2018-06-13T11:14:31.090Z,99873.86
2018-06-13T11:16:59.808Z,99871.46
2018-06-13T11:19:28.688Z,99873.84
2018-06-13T11:21:57.444Z,99880.00
2018-06-13T11:24:26.366Z,99876.75
2018-06-13T11:26:55.154Z,99881.83
2018-06-13T11:29:23.818Z,99876.45
2018-06-13T11:31:53.883Z,99878.47
2018-06-13T11:34:23.138Z,99880.19
2018-06-13T11:36:52.234Z,99878.77
2018-06-13T11:39:21.030Z,99883.47
2018-06-13T11:41:50.192Z,99877.17
2018-06-13T11:44:18.923Z,99873.24
2018-06-13T11:46:48.228Z,99877.27
2018-06-13T11:49:16.854Z,99874.83
2018-06-13T11:51:45.571Z,99871.22
2018-06-13T11:54:14.357Z,99863.77
2018-06-13T11:56:43.937Z,99867.03
2018-06-13T11:59:13.064Z,99872.90
2018-06-13T12:01:50.057Z,99871.09
2018-06-13T12:04:19.001Z,99873.88
2018-06-13T12:06:52.364Z,99878.34
2018-06-13T12:09:29.381Z,99864.86
2018-06-13T12:12:04.695Z,99869.47
2018-06-13T12:14:33.720Z,99865.59
2018-06-13T12:17:02.629Z,99865.75
2018-06-13T12:19:31.394Z,99867.09
2018-06-13T12:22:02.268Z,99861.59
2018-06-13T12:24:31.156Z,99870.30
2018-06-13T12:27:05.331Z,99868.52
2018-06-13T12:29:34.060Z,99867.19
2018-06-13T12:32:10.887Z,99868.55
2018-06-13T12:34:42.283Z,99876.95
2018-06-13T12:37:11.648Z,99876.61
2018-06-13T12:39:40.223Z,99872.77
2018-06-13T12:42:08.928Z,99880.08
2018-06-13T12:44:44.612Z,99881.48
2018-06-13T12:47:22.255Z,99886.05
2018-06-13T12:49:50.958Z,99882.30
2018-06-13T12:52:23.465Z,99885.11
2018-06-13T12:54:54.110Z,99886.45
2018-06-13T12:57:33.538Z,99884.72
2018-06-13T13:00:14.743Z,99885.02
2018-06-13T13:02:46.541Z,99885.73
2018-06-13T13:05:20.439Z,99885.79
2018-06-13T13:07:49.660Z,99885.61
2018-06-13T13:10:27.826Z,99876.16
2018-06-13T13:13:05.383Z,99866.22
2018-06-13T13:15:35.333Z,99870.55
2018-06-13T13:18:05.999Z,99869.97
2018-06-13T13:20:45.577Z,99873.39
2018-06-13T13:23:18.845Z,99882.93
2018-06-13T13:25:51.856Z,99878.91
2018-06-13T13:28:21.449Z,99873.84
2018-06-13T13:30:50.337Z,99874.09
2018-06-13T13:33:19.078Z,99875.54
2018-06-13T13:35:47.827Z,99871.99
2018-06-13T13:38:16.594Z,99877.72
2018-06-13T13:40:46.531Z,99876.12
2018-06-13T13:43:15.379Z,99877.73
2018-06-13T13:45:44.272Z,99876.86
2018-06-13T13:48:12.952Z,99876.00
2018-06-13T13:50:41.782Z,99870.34
2018-06-13T13:53:10.456Z,99876.65
2018-06-13T13:55:39.111Z,99870.61
2018-06-13T13:58:08.268Z,99869.74
2018-06-13T14:00:37.133Z,99876.63
2018-06-13T14:03:05.729Z,99867.27
2018-06-13T14:05:35.544Z,99872.24
2018-06-13T14:08:05.123Z,99864.02
2018-06-13T14:10:34.279Z,99861.25
2018-06-13T14:13:03.714Z,99859.91
2018-06-13T14:15:32.558Z,99857.52
2018-06-13T14:18:01.615Z,99854.75
2018-06-13T14:20:31.476Z,99848.87
2018-06-13T14:23:00.517Z,99853.87
2018-06-13T14:25:29.328Z,99853.39
2018-06-13T14:27:59.231Z,99855.92
2018-06-13T14:30:28.039Z,99859.97
2018-06-13T14:32:57.353Z,99857.81
2018-06-13T14:35:26.546Z,99854.50
2018-06-13T14:37:55.871Z,99852.17
2018-06-13T14:40:25.936Z,99852.56
2018-06-13T14:42:55.843Z,99847.97
2018-06-13T14:45:24.963Z,99851.09
2018-06-13T14:47:53.976Z,99869.43
2018-06-13T14:50:23.685Z,99862.59
2018-06-13T14:52:52.941Z,99869.19
2018-06-13T14:55:23.318Z,99866.52
2018-06-13T14:57:52.633Z,99863.98
2018-06-13T15:00:21.631Z,99865.11
2018-06-13T15:02:50.568Z,99860.34
2018-06-13T15:05:19.767Z,99858.43
2018-06-13T15:07:48.739Z,99855.19
2018-06-13T15:10:17.861Z,99856.73
2018-06-13T15:12:46.901Z,99855.28
2018-06-13T15:15:16.304Z,99851.11
2018-06-13T15:17:45.377Z,99852.30
2018-06-13T15:20:14.743Z,99848.96
2018-06-13T15:22:43.697Z,99844.28
2018-06-13T15:25:13.150Z,99851.13
2018-06-13T15:27:44.184Z,99847.81
2018-06-13T15:30:13.051Z,99855.25
2018-06-13T15:32:41.633Z,99852.38
2018-06-13T15:35:10.647Z,99856.26
2018-06-13T15:37:40.037Z,99848.91
2018-06-13T15:40:09.196Z,99851.66
2018-06-13T15:42:37.843Z,99844.22
2018-06-13T15:45:06.486Z,99845.37
2018-06-13T15:47:35.219Z,99851.84
2018-06-13T15:50:03.840Z,99859.73
2018-06-13T15:52:32.626Z,99858.14
2018-06-13T15:55:01.326Z,99859.56
2018-06-13T15:57:30.093Z,99859.33
2018-06-13T15:59:59.043Z,99857.19
2018-06-13T16:02:27.957Z,99855.35
2018-06-13T16:04:56.687Z,99863.43
2018-06-13T16:07:26.041Z,99863.36
2018-06-13T16:09:54.701Z,99864.42
2018-06-13T16:12:23.445Z,99867.30
2018-06-13T16:14:52.304Z,99865.23
2018-06-13T16:17:20.796Z,99866.05
2018-06-13T16:19:49.582Z,99867.91
2018-06-13T16:22:18.772Z,99868.30
2018-06-13T16:24:47.355Z,99863.80
2018-06-13T16:27:16.032Z,99870.66
2018-06-13T16:29:44.796Z,99873.70
2018-06-13T16:32:13.572Z,99870.66
2018-06-13T16:34:42.190Z,99870.81
2018-06-13T16:37:10.865Z,99879.39
2018-06-13T16:39:39.403Z,99872.41
2018-06-13T16:42:08.645Z,99879.27
2018-06-13T16:44:37.223Z,99878.97
2018-06-13T16:47:06.891Z,99888.69
2018-06-13T16:49:35.786Z,99883.73
2018-06-13T16:52:15.511Z,99885.83
2018-06-13T16:54:55.012Z,99889.38
2018-06-13T16:57:23.549Z,99891.28
2018-06-13T16:59:52.336Z,99897.27
2018-06-13T17:02:20.934Z,99897.66
2018-06-13T17:04:49.523Z,99897.50
2018-06-13T17:07:18.329Z,99894.53
2018-06-13T17:09:46.925Z,99895.28
2018-06-13T17:12:15.780Z,99892.77
2018-06-13T17:14:44.430Z,99901.03
2018-06-13T17:17:14.972Z,99902.24
2018-06-13T17:19:43.624Z,99899.83
2018-06-13T17:22:12.323Z,99907.78
2018-06-13T17:24:40.939Z,99904.14
2018-06-13T17:27:09.478Z,99911.21
2018-06-13T17:29:38.046Z,99917.92
2018-06-13T17:32:06.600Z,99922.88
2018-06-13T17:34:35.279Z,99925.94
2018-06-13T17:37:03.920Z,99928.15
2018-06-13T17:39:32.866Z,99934.84
2018-06-13T17:42:01.804Z,99936.98
2018-06-13T17:44:30.633Z,99939.49
2018-06-13T17:46:59.798Z,99939.34
2018-06-13T17:49:28.547Z,99943.16
2018-06-13T17:51:57.232Z,99948.89
2018-06-13T17:54:25.868Z,99948.19
2018-06-13T17:56:54.758Z,99947.80
2018-06-13T17:59:23.400Z,99948.03
2018-06-13T18:01:51.989Z,99947.64
2018-06-13T18:04:20.577Z,99945.51
2018-06-13T18:06:49.162Z,99951.20
2018-06-13T18:09:17.684Z,99953.38
2018-06-13T18:11:46.665Z,99955.42
2018-06-13T18:14:15.241Z,99950.71
2018-06-13T18:16:43.880Z,99950.00
2018-06-13T18:19:13.016Z,99946.23
2018-06-13T18:21:41.653Z,99944.34
2018-06-13T18:24:10.841Z,99946.44
2018-06-13T18:26:39.685Z,99945.07
2018-06-13T18:29:08.274Z,99951.61
2018-06-13T18:31:36.842Z,99952.70
2018-06-13T18:34:05.455Z,99944.48
2018-06-13T18:36:34.107Z,99940.95
2018-06-13T18:39:02.694Z,99950.81
2018-06-13T18:41:31.883Z,99948.70
2018-06-13T18:44:00.398Z,99953.30
2018-06-13T18:46:28.921Z,99952.98
2018-06-13T18:48:57.548Z,99944.23
2018-06-13T18:51:26.324Z,99938.52
2018-06-13T18:53:54.867Z,99936.02
2018-06-13T18:56:23.355Z,99934.89
2018-06-13T18:58:51.892Z,99929.30
2018-06-13T19:01:20.559Z,99937.38
2018-06-13T19:03:49.264Z,99939.13
2018-06-13T19:06:17.754Z,99928.03
2018-06-13T19:08:46.509Z,99932.77
2018-06-13T19:11:15.351Z,99933.19
2018-06-13T19:13:44.114Z,99938.52
2018-06-13T19:16:12.746Z,99935.92
2018-06-13T19:18:41.383Z,99940.28
2018-06-13T19:21:10.046Z,99934.63
2018-06-13T19:23:39.114Z,99938.60
2018-06-13T19:26:07.906Z,99937.32
2018-06-13T19:28:36.573Z,99943.05
2018-06-13T19:31:05.335Z,99943.47
2018-06-13T19:33:33.924Z,99948.67
2018-06-13T19:36:02.521Z,99947.84
2018-06-13T19:38:31.281Z,99944.73
2018-06-13T19:40:59.964Z,99942.09
2018-06-13T19:43:33.881Z,99945.63
2018-06-13T19:46:02.554Z,99942.48
2018-06-13T19:48:36.240Z,99945.52
2018-06-13T19:51:04.851Z,99952.94
2018-06-13T19:53:38.592Z,99951.47
2018-06-13T19:56:08.509Z,99955.81
2018-06-13T19:58:37.981Z,99956.63
2018-06-13T20:01:06.875Z,99957.81
2018-06-13T20:03:40.601Z,99962.47
2018-06-13T20:06:09.727Z,99962.22
2018-06-13T20:08:38.433Z,99974.81
2018-06-13T20:11:07.211Z,99971.52
2018-06-13T20:13:40.872Z,99970.91
2018-06-13T20:16:14.845Z,99975.08
2018-06-13T20:18:48.693Z,99971.37
2018-06-13T20:21:17.480Z,99977.77
2018-06-13T20:23:46.480Z,99971.37
2018-06-13T20:26:20.439Z,99970.24
2018-06-13T20:28:54.413Z,99985.79
2018-06-13T20:31:29.324Z,99984.72
2018-06-13T20:33:58.100Z,99997.65
2018-06-13T20:36:26.933Z,100005.32
2018-06-13T20:38:55.966Z,100008.10
2018-06-13T20:41:26.026Z,100016.62
2018-06-13T20:43:54.848Z,100017.64
2018-06-13T20:46:23.652Z,100013.40
2018-06-13T20:48:52.420Z,100006.48
2018-06-13T20:51:21.474Z,100008.80
2018-06-13T20:53:50.296Z,100005.88
2018-06-13T20:56:19.037Z,100004.66
2018-06-13T20:58:47.807Z,100001.67
2018-06-13T21:01:16.582Z,100024.23
2018-06-13T21:03:45.457Z,100008.48
2018-06-13T21:06:14.280Z,100009.45
2018-06-13T21:08:43.012Z,100006.09
2018-06-13T21:11:11.885Z,100008.33
2018-06-13T21:13:41.928Z,100006.67
2018-06-13T21:16:10.783Z,100014.69
2018-06-13T21:18:40.011Z,100011.77
2018-06-13T21:21:08.917Z,100008.34
2018-06-13T21:23:37.642Z,100003.19
2018-06-13T21:26:06.429Z,100003.72
2018-06-13T21:28:35.268Z,100002.11
2018-06-13T21:31:03.974Z,99996.45
2018-06-13T21:33:32.573Z,99992.17
2018-06-13T21:36:01.308Z,99997.17
2018-06-13T21:38:29.980Z,99998.58
2018-06-13T21:40:58.735Z,100005.62
2018-06-13T21:43:27.392Z,99994.30
2018-06-13T21:45:56.135Z,99993.48
2018-06-13T21:48:24.895Z,99989.64
2018-06-13T21:50:53.503Z,99994.10
2018-06-13T21:53:22.156Z,99990.64
2018-06-13T21:55:50.870Z,99990.67
2018-06-13T21:58:19.503Z,99985.86
2018-06-13T22:00:48.147Z,99989.84
2018-06-13T22:03:17.053Z,99985.92
2018-06-13T22:05:45.917Z,99981.14
2018-06-13T22:08:14.777Z,99982.08
2018-06-13T22:10:43.470Z,99983.45
2018-06-13T22:13:12.432Z,99977.39
2018-06-13T22:15:41.345Z,99975.69
2018-06-13T22:18:09.979Z,99977.94
2018-06-13T22:20:38.565Z,99976.70
2018-06-13T22:23:07.105Z,99983.74
2018-06-13T22:25:35.725Z,99976.39
2018-06-13T22:28:04.302Z,99977.73
2018-06-13T22:30:32.895Z,99981.78
2018-06-13T22:33:01.477Z,99977.44
2018-06-13T22:35:30.154Z,99981.03
2018-06-13T22:37:58.798Z,99985.05
2018-06-13T22:40:27.355Z,99980.73
2018-06-13T22:42:56.016Z,99982.63
2018-06-13T22:45:24.594Z,99983.18
2018-06-13T22:47:53.238Z,99978.89
2018-06-13T22:50:21.854Z,99980.27
2018-06-13T22:52:50.438Z,99983.39
2018-06-13T22:55:19.001Z,99980.84
2018-06-13T22:57:47.846Z,99976.97
2018-06-13T23:00:37.486Z,99975.25
2018-06-13T23:03:06.071Z,99974.02
2018-06-13T23:05:34.627Z,99968.36
2018-06-13T23:08:03.232Z,99974.97
2018-06-13T23:10:31.744Z,99978.08
2018-06-13T23:13:00.404Z,99980.30
2018-06-13T23:15:29.031Z,99970.66
2018-06-13T23:17:57.702Z,99974.64
2018-06-13T23:20:26.585Z,99975.07
2018-06-13T23:22:55.282Z,99981.25
2018-06-13T23:25:23.835Z,99978.26
2018-06-13T23:27:52.418Z,99982.20
2018-06-13T23:30:21.014Z,99982.23
2018-06-13T23:32:49.690Z,99980.09
2018-06-13T23:35:18.282Z,99985.81
2018-06-13T23:37:47.121Z,99984.55
2018-06-13T23:40:15.760Z,99977.58
2018-06-13T23:42:44.476Z,99975.82
2018-06-13T23:45:13.256Z,99978.89
2018-06-13T23:47:41.931Z,99975.38
2018-06-13T23:50:10.616Z,99979.82
2018-06-13T23:52:39.565Z,99975.87
2018-06-13T23:55:08.289Z,99968.45
2018-06-13T23:57:36.969Z,99988.23
